createdAt,value
2022-10-26T00:00:17.253Z,20.20
2022-10-26T00:03:19.772Z,20.20
2022-10-26T00:06:25.027Z,20.20
2022-10-26T00:09:27.598Z,20.20
2022-10-26T00:12:33.675Z,20.20
2022-10-26T00:15:42.074Z,20.20
2022-10-26T00:18:44.568Z,20.20
2022-10-26T00:21:54.190Z,20.20
2022-10-26T00:24:56.565Z,20.20
2022-10-26T00:28:00.241Z,20.20
2022-10-26T00:31:04.087Z,20.20
2022-10-26T00:34:06.491Z,20.20
2022-10-26T00:37:09.739Z,20.20
2022-10-26T00:40:12.068Z,20.20
2022-10-26T00:43:23.103Z,20.20
2022-10-26T00:46:35.506Z,20.20
2022-10-26T00:49:38.609Z,20.20
2022-10-26T00:52:41.396Z,20.20
2022-10-26T00:55:47.945Z,20.20
2022-10-26T00:58:50.198Z,20.20
2022-10-26T01:01:53.658Z,20.20
2022-10-26T01:04:57.525Z,20.20
2022-10-26T01:07:59.705Z,20.30
2022-10-26T01:11:04.663Z,20.30
2022-10-26T01:14:13.619Z,20.30
2022-10-26T01:17:45.933Z,20.30
2022-10-26T01:21:00.997Z,20.30
2022-10-26T01:24:10.057Z,20.30
2022-10-26T01:27:38.884Z,20.30
2022-10-26T01:30:45.871Z,20.30
2022-10-26T01:34:02.478Z,20.30
2022-10-26T01:37:11.005Z,20.40
2022-10-26T01:40:23.516Z,20.40
2022-10-26T01:43:28.357Z,20.40
2022-10-26T01:46:39.524Z,20.30
2022-10-26T01:50:09.119Z,20.40
2022-10-26T01:53:15.183Z,20.30
2022-10-26T01:56:20.112Z,20.30
2022-10-26T01:59:31.445Z,20.30
2022-10-26T02:02:43.584Z,20.30
2022-10-26T02:05:56.940Z,20.30
2022-10-26T02:09:14.399Z,20.30
2022-10-26T02:12:55.250Z,20.30
2022-10-26T02:16:19.973Z,20.30
2022-10-26T02:19:40.866Z,20.30
2022-10-26T02:22:50.527Z,20.30
2022-10-26T02:25:58.521Z,20.30
2022-10-26T02:29:05.233Z,20.30
2022-10-26T02:32:09.558Z,20.20
2022-10-26T02:35:12.027Z,20.20
2022-10-26T02:38:16.906Z,20.20
2022-10-26T02:41:20.316Z,20.20
2022-10-26T02:44:27.277Z,20.20
2022-10-26T02:47:29.983Z,20.20
2022-10-26T02:51:03.925Z,20.30
2022-10-26T02:54:23.954Z,20.20
2022-10-26T02:57:40.935Z,20.20
2022-10-26T03:00:43.565Z,20.10
2022-10-26T03:03:45.724Z,20.20
2022-10-26T03:06:54.385Z,20.10
2022-10-26T03:09:58.239Z,20.00
2022-10-26T03:13:00.231Z,20.00
2022-10-26T03:16:04.229Z,20.00
2022-10-26T03:19:06.285Z,20.00
2022-10-26T03:22:08.356Z,20.00
2022-10-26T03:25:10.544Z,19.90
2022-10-26T03:28:12.807Z,19.90
2022-10-26T03:31:14.978Z,19.90
2022-10-26T03:34:17.048Z,20.00
2022-10-26T03:37:19.267Z,20.00
2022-10-26T03:40:21.311Z,20.10
2022-10-26T03:43:23.332Z,20.10
2022-10-26T03:46:25.364Z,20.20
2022-10-26T03:49:27.373Z,20.20
2022-10-26T03:52:29.428Z,20.20
2022-10-26T03:55:31.689Z,20.30
2022-10-26T03:58:33.741Z,20.30
2022-10-26T04:01:36.214Z,20.30
2022-10-26T04:04:38.383Z,20.30
2022-10-26T04:07:40.463Z,20.20
2022-10-26T04:10:42.466Z,20.30
2022-10-26T04:13:45.399Z,20.30
2022-10-26T04:16:47.749Z,20.30
2022-10-26T04:19:49.773Z,20.40
2022-10-26T04:23:18.885Z,20.30
2022-10-26T04:26:21.792Z,20.30
2022-10-26T04:29:23.831Z,20.30
2022-10-26T04:32:26.028Z,20.30
2022-10-26T04:35:28.484Z,20.30
2022-10-26T04:38:30.492Z,20.30
2022-10-26T04:41:32.506Z,20.30
2022-10-26T04:44:34.547Z,20.30
2022-10-26T04:47:36.824Z,20.30
2022-10-26T04:50:40.203Z,20.30
2022-10-26T04:53:47.040Z,20.30
2022-10-26T04:56:49.056Z,20.30
2022-10-26T04:59:51.064Z,20.30
2022-10-26T05:02:58.799Z,20.20
2022-10-26T05:06:01.863Z,20.20
2022-10-26T05:09:04.078Z,20.20
2022-10-26T05:12:06.922Z,20.20
2022-10-26T05:15:12.234Z,20.20
2022-10-26T05:18:14.325Z,20.30
2022-10-26T05:21:20.223Z,20.30
2022-10-26T05:24:22.299Z,20.30
2022-10-26T05:27:24.360Z,20.20
2022-10-26T05:30:27.776Z,20.20
2022-10-26T05:33:29.899Z,20.30
2022-10-26T05:36:32.286Z,20.20
2022-10-26T05:39:39.694Z,20.30
2022-10-26T05:42:41.740Z,20.30
2022-10-26T05:45:43.907Z,20.30
2022-10-26T05:48:46.180Z,20.30
2022-10-26T05:51:48.220Z,20.30
2022-10-26T05:54:50.304Z,20.30
2022-10-26T05:57:52.977Z,20.30
2022-10-26T06:01:07.785Z,20.30
2022-10-26T06:04:31.369Z,20.30
2022-10-26T06:07:33.669Z,20.40
2022-10-26T06:10:36.029Z,20.40
2022-10-26T06:13:38.303Z,20.40
2022-10-26T06:17:13.495Z,20.40
2022-10-26T06:20:35.739Z,20.40
2022-10-26T06:23:55.712Z,20.40
2022-10-26T06:27:36.727Z,20.40
2022-10-26T06:30:40.881Z,20.50
2022-10-26T06:33:45.001Z,20.50
2022-10-26T06:36:48.172Z,20.50
2022-10-26T06:39:54.040Z,20.40
2022-10-26T06:42:57.124Z,20.30
2022-10-26T06:46:16.253Z,20.30
2022-10-26T06:49:29.726Z,20.30
2022-10-26T06:52:48.803Z,20.20
2022-10-26T06:55:51.414Z,20.20
2022-10-26T06:58:55.787Z,20.20
2022-10-26T07:02:02.856Z,20.20
2022-10-26T07:05:13.050Z,20.20
2022-10-26T07:08:15.122Z,20.20
2022-10-26T07:11:17.534Z,20.20
2022-10-26T07:14:19.581Z,20.20
2022-10-26T07:17:21.725Z,20.20
2022-10-26T07:20:24.274Z,20.10
2022-10-26T07:26:37.132Z,20.10
2022-10-26T07:29:40.191Z,20.10
2022-10-26T07:32:44.050Z,20.00
2022-10-26T07:35:46.247Z,20.10
2022-10-26T07:38:51.093Z,20.10
2022-10-26T07:41:56.118Z,20.10
2022-10-26T07:44:58.560Z,20.10
2022-10-26T07:48:00.634Z,20.00
2022-10-26T07:51:03.573Z,20.10
2022-10-26T07:54:05.718Z,20.10
2022-10-26T07:57:16.436Z,20.20
2022-10-26T08:00:18.743Z,20.20
2022-10-26T08:03:21.470Z,20.20
2022-10-26T08:06:24.511Z,20.20
2022-10-26T08:09:26.606Z,20.20
2022-10-26T08:12:28.843Z,20.40
2022-10-26T08:15:30.888Z,20.90
2022-10-26T08:18:33.776Z,22.10
2022-10-26T08:21:39.917Z,23.50
2022-10-26T08:24:44.307Z,24.50
2022-10-26T08:27:46.460Z,25.50
2022-10-26T08:30:48.635Z,26.30
2022-10-26T08:33:51.247Z,26.20
2022-10-26T08:36:53.272Z,25.70
2022-10-26T08:39:56.645Z,25.00
2022-10-26T08:43:27.072Z,24.00
2022-10-26T08:46:36.400Z,23.30
2022-10-26T08:50:22.820Z,22.90
2022-10-26T08:53:34.203Z,22.90
2022-10-26T08:56:44.909Z,23.80
2022-10-26T08:59:59.377Z,25.50
2022-10-26T09:03:01.504Z,26.50
2022-10-26T09:06:26.181Z,27.60
2022-10-26T09:09:37.072Z,27.90
2022-10-26T09:12:49.002Z,27.80
2022-10-26T09:16:17.425Z,27.70
2022-10-26T09:19:27.268Z,26.90
2022-10-26T09:22:50.320Z,26.00
2022-10-26T09:26:02.440Z,25.00
2022-10-26T09:29:07.472Z,24.10
2022-10-26T09:32:22.283Z,24.00
2022-10-26T09:38:43.674Z,24.40
2022-10-26T09:41:57.718Z,24.70
2022-10-26T09:45:25.523Z,24.90
2022-10-26T09:48:46.234Z,24.50
2022-10-26T09:51:48.954Z,24.00
2022-10-26T09:54:50.986Z,23.80
2022-10-26T09:57:57.245Z,23.70
2022-10-26T10:01:00.553Z,23.80
2022-10-26T10:04:17.553Z,23.80
2022-10-26T10:07:19.611Z,23.70
2022-10-26T10:10:23.542Z,23.60
2022-10-26T10:13:29.085Z,23.40
2022-10-26T10:16:31.337Z,23.60
2022-10-26T10:19:35.724Z,23.70
2022-10-26T10:22:54.376Z,24.00
2022-10-26T10:26:10.210Z,24.10
2022-10-26T10:29:16.956Z,24.00
2022-10-26T10:32:21.976Z,24.50
2022-10-26T10:35:29.783Z,24.60
2022-10-26T10:38:38.213Z,24.80
2022-10-26T10:41:44.628Z,25.00
2022-10-26T10:44:52.118Z,25.60
2022-10-26T10:48:02.411Z,26.00
2022-10-26T10:51:12.753Z,25.90
2022-10-26T10:54:36.025Z,26.60
2022-10-26T10:57:56.195Z,26.90
2022-10-26T11:00:59.396Z,27.80
2022-10-26T11:04:16.179Z,28.10
2022-10-26T11:07:21.048Z,28.70
2022-10-26T11:10:27.878Z,28.40
2022-10-26T11:13:32.254Z,28.50
2022-10-26T11:16:47.274Z,28.10
2022-10-26T11:19:53.593Z,27.80
2022-10-26T11:23:21.097Z,28.50
2022-10-26T11:26:42.340Z,28.70
2022-10-26T11:30:18.503Z,28.40
2022-10-26T11:33:28.934Z,28.00
2022-10-26T11:36:33.845Z,27.70
2022-10-26T11:40:14.844Z,27.30
2022-10-26T11:43:33.681Z,26.20
2022-10-26T11:46:53.057Z,25.80
2022-10-26T11:50:17.359Z,25.60
2022-10-26T11:53:24.528Z,25.40
2022-10-26T11:56:34.243Z,25.30
2022-10-26T11:59:42.828Z,25.20
2022-10-26T12:02:58.195Z,25.30
2022-10-26T12:06:02.888Z,25.50
2022-10-26T12:09:35.799Z,25.20
2022-10-26T12:13:21.444Z,25.20
2022-10-26T12:16:52.275Z,25.10
2022-10-26T12:20:21.569Z,24.90
2022-10-26T12:23:40.377Z,24.80
2022-10-26T12:26:52.314Z,24.80
2022-10-26T12:30:23.043Z,25.00
2022-10-26T12:33:30.161Z,24.90
2022-10-26T12:36:57.429Z,24.90
2022-10-26T12:40:33.552Z,25.00
2022-10-26T12:43:38.076Z,24.70
2022-10-26T12:46:41.638Z,24.60
2022-10-26T12:50:22.093Z,24.60
2022-10-26T12:53:26.234Z,24.50
2022-10-26T12:56:31.859Z,24.50
2022-10-26T12:59:50.604Z,24.40
2022-10-26T13:03:11.456Z,24.60
2022-10-26T13:06:44.507Z,24.50
2022-10-26T13:09:59.859Z,24.60
2022-10-26T13:13:05.547Z,24.70
2022-10-26T13:16:12.224Z,24.80
2022-10-26T13:19:36.995Z,24.90
2022-10-26T13:22:47.225Z,24.90
2022-10-26T13:26:12.961Z,25.00
2022-10-26T13:29:16.535Z,25.00
2022-10-26T13:32:19.131Z,25.00
2022-10-26T13:35:24.042Z,25.20
2022-10-26T13:38:31.704Z,25.30
2022-10-26T13:41:38.263Z,25.10
2022-10-26T13:44:59.255Z,25.10
2022-10-26T13:48:12.339Z,25.00
2022-10-26T13:51:22.286Z,25.00
2022-10-26T13:54:44.944Z,25.00
2022-10-26T13:58:16.907Z,25.00
2022-10-26T14:01:21.779Z,25.00
2022-10-26T14:04:28.202Z,25.00
2022-10-26T14:07:37.121Z,25.00
2022-10-26T14:10:42.421Z,25.00
2022-10-26T14:13:45.870Z,25.00
2022-10-26T14:16:50.398Z,25.00
2022-10-26T14:19:53.279Z,25.00
2022-10-26T14:22:55.756Z,25.00
2022-10-26T14:25:59.452Z,25.00
2022-10-26T14:29:02.348Z,25.10
2022-10-26T14:32:21.693Z,25.10
2022-10-26T14:35:28.785Z,25.10
2022-10-26T14:38:45.209Z,25.20
2022-10-26T14:41:48.866Z,25.30
2022-10-26T14:44:51.084Z,25.20
2022-10-26T14:47:53.411Z,25.30
2022-10-26T14:50:59.819Z,25.40
2022-10-26T14:54:04.408Z,25.40
2022-10-26T14:57:26.477Z,25.40
2022-10-26T15:00:28.820Z,25.40
2022-10-26T15:03:30.955Z,25.50
2022-10-26T15:06:42.046Z,25.30
2022-10-26T15:09:46.058Z,25.50
2022-10-26T15:12:48.215Z,25.70
2022-10-26T15:15:53.605Z,25.80
2022-10-26T15:19:09.871Z,25.90
2022-10-26T15:22:31.735Z,26.00
2022-10-26T15:25:34.937Z,26.10
2022-10-26T15:28:37.055Z,26.20
2022-10-26T15:31:39.412Z,26.10
2022-10-26T15:34:42.713Z,26.00
2022-10-26T15:37:48.866Z,26.10
2022-10-26T15:40:53.849Z,26.10
2022-10-26T15:44:01.599Z,26.10
2022-10-26T15:47:08.496Z,26.00
2022-10-26T15:50:16.216Z,25.90
2022-10-26T15:53:24.330Z,25.90
2022-10-26T15:56:26.973Z,25.80
2022-10-26T15:59:29.222Z,25.80
2022-10-26T16:02:31.347Z,25.60
2022-10-26T16:05:33.432Z,25.50
2022-10-26T16:08:35.753Z,25.40
2022-10-26T16:11:37.853Z,25.20
2022-10-26T16:15:05.239Z,25.00
2022-10-26T16:18:02.558Z,24.90
2022-10-26T16:21:04.868Z,24.80
2022-10-26T16:24:07.240Z,24.70
2022-10-26T16:27:09.299Z,24.60
2022-10-26T16:30:13.126Z,24.40
2022-10-26T16:33:15.390Z,24.40
2022-10-26T16:36:17.534Z,24.30
2022-10-26T16:39:19.622Z,24.40
2022-10-26T16:42:21.732Z,24.20
2022-10-26T16:45:23.844Z,24.10
2022-10-26T16:48:26.317Z,24.00
2022-10-26T16:51:29.383Z,24.00
2022-10-26T16:54:31.421Z,23.90
2022-10-26T16:57:33.830Z,23.90
2022-10-26T17:00:37.880Z,23.90
2022-10-26T17:03:40.533Z,23.80
2022-10-26T17:06:42.827Z,23.80
2022-10-26T17:09:44.963Z,23.70
2022-10-26T17:12:47.476Z,23.60
2022-10-26T17:15:50.629Z,23.50
2022-10-26T17:18:53.812Z,23.50
2022-10-26T17:21:55.981Z,23.40
2022-10-26T17:24:58.056Z,23.30
2022-10-26T17:28:00.214Z,23.20
2022-10-26T17:31:13.956Z,23.20
2022-10-26T17:34:16.285Z,23.10
2022-10-26T17:37:19.715Z,23.00
2022-10-26T17:40:22.149Z,23.00
2022-10-26T17:43:24.660Z,22.90
2022-10-26T17:46:27.271Z,22.80
2022-10-26T17:49:33.645Z,22.80
2022-10-26T17:52:38.143Z,22.70
2022-10-26T17:55:40.202Z,22.60
2022-10-26T17:58:42.532Z,22.50
2022-10-26T18:01:44.863Z,22.40
2022-10-26T18:04:46.993Z,22.40
2022-10-26T18:07:49.388Z,22.30
2022-10-26T18:10:54.161Z,22.30
2022-10-26T18:13:58.136Z,22.30
2022-10-26T18:17:00.334Z,22.30
2022-10-26T18:20:02.673Z,22.20
2022-10-26T18:23:05.814Z,22.20
2022-10-26T18:26:18.517Z,22.10
2022-10-26T18:29:20.617Z,22.10
2022-10-26T18:32:22.709Z,22.10
2022-10-26T18:35:24.818Z,22.10
2022-10-26T18:38:26.923Z,22.00
2022-10-26T18:41:29.103Z,22.00
2022-10-26T18:44:31.628Z,22.00
2022-10-26T18:47:34.028Z,22.00
2022-10-26T18:50:36.519Z,22.00
2022-10-26T18:53:40.345Z,21.90
2022-10-26T18:56:42.738Z,21.90
2022-10-26T18:59:44.934Z,21.90
2022-10-26T19:02:51.533Z,21.90
2022-10-26T19:05:55.546Z,21.80
2022-10-26T19:08:58.358Z,21.80
2022-10-26T19:12:03.707Z,21.80
2022-10-26T19:15:06.634Z,21.80
2022-10-26T19:18:09.614Z,21.80
2022-10-26T19:21:17.828Z,21.80
2022-10-26T19:24:22.399Z,21.80
2022-10-26T19:27:24.512Z,21.80
2022-10-26T19:30:26.636Z,21.80
2022-10-26T19:33:28.817Z,21.70
2022-10-26T19:36:31.070Z,21.70
2022-10-26T19:39:33.335Z,21.70
2022-10-26T19:42:35.713Z,21.70
2022-10-26T19:45:38.022Z,21.80
2022-10-26T19:48:40.732Z,21.80
2022-10-26T19:51:44.127Z,21.80
2022-10-26T19:54:46.159Z,21.80
2022-10-26T19:57:48.549Z,21.80
2022-10-26T20:00:51.618Z,21.80
2022-10-26T20:03:53.788Z,21.90
2022-10-26T20:06:55.834Z,21.90
2022-10-26T20:09:57.921Z,21.90
2022-10-26T20:12:59.995Z,21.80
2022-10-26T20:16:02.158Z,21.80
2022-10-26T20:19:04.518Z,21.70
2022-10-26T20:22:07.586Z,21.70
2022-10-26T20:25:09.683Z,21.70
2022-10-26T20:28:11.923Z,21.70
2022-10-26T20:31:14.155Z,21.70
2022-10-26T20:34:16.694Z,21.70
2022-10-26T20:37:19.006Z,21.80
2022-10-26T20:40:21.810Z,21.80
2022-10-26T20:43:24.875Z,21.80
2022-10-26T20:46:28.279Z,21.80
2022-10-26T20:49:30.648Z,21.80
2022-10-26T20:52:55.323Z,21.80
2022-10-26T20:56:03.631Z,21.60
2022-10-26T20:59:12.712Z,21.60
2022-10-26T21:02:15.944Z,21.60
2022-10-26T21:05:19.994Z,21.60
2022-10-26T21:08:22.478Z,21.60
2022-10-26T21:11:25.967Z,21.60
2022-10-26T21:14:28.870Z,21.70
2022-10-26T21:17:34.576Z,21.70
2022-10-26T21:20:36.882Z,21.60
2022-10-26T21:23:40.688Z,21.60
2022-10-26T21:26:42.728Z,21.60
2022-10-26T21:29:44.875Z,21.60
2022-10-26T21:32:47.004Z,21.70
2022-10-26T21:35:54.482Z,21.70
2022-10-26T21:38:56.593Z,21.70
2022-10-26T21:41:58.829Z,21.70
2022-10-26T21:45:01.187Z,21.80
2022-10-26T21:48:03.301Z,21.80
2022-10-26T21:51:07.206Z,21.70
2022-10-26T21:54:09.432Z,21.70
2022-10-26T21:57:11.707Z,21.70
2022-10-26T22:00:14.691Z,21.80
2022-10-26T22:03:16.836Z,21.80
2022-10-26T22:06:21.035Z,21.70
2022-10-26T22:09:23.047Z,21.70
2022-10-26T22:12:25.044Z,21.60
2022-10-26T22:15:27.064Z,21.60
2022-10-26T22:18:29.142Z,21.60
2022-10-26T22:21:35.264Z,21.70
2022-10-26T22:24:37.353Z,21.70
2022-10-26T22:27:40.326Z,21.70
2022-10-26T22:30:44.322Z,21.70
2022-10-26T22:33:51.270Z,21.70
2022-10-26T22:36:53.473Z,21.70
2022-10-26T22:39:55.468Z,21.60
2022-10-26T22:42:57.649Z,21.70
2022-10-26T22:46:05.404Z,21.70
2022-10-26T22:49:11.516Z,21.70
2022-10-26T22:52:14.475Z,21.70
2022-10-26T22:55:17.399Z,21.70
2022-10-26T22:58:20.337Z,21.60
2022-10-26T23:01:28.441Z,21.60
2022-10-26T23:04:30.606Z,21.60
2022-10-26T23:07:33.080Z,21.50
2022-10-26T23:10:35.404Z,21.50
2022-10-26T23:13:37.486Z,21.50
2022-10-26T23:16:39.530Z,21.50
2022-10-26T23:19:42.538Z,21.50
2022-10-26T23:22:44.532Z,21.50
2022-10-26T23:25:46.528Z,21.50
2022-10-26T23:28:49.151Z,21.50
2022-10-26T23:31:51.215Z,21.50
2022-10-26T23:34:53.263Z,21.50
2022-10-26T23:37:58.976Z,21.50
2022-10-26T23:41:01.056Z,21.50
2022-10-26T23:44:03.111Z,21.50
2022-10-26T23:47:05.152Z,21.40
2022-10-26T23:50:07.727Z,21.40
2022-10-26T23:53:10.930Z,21.30
2022-10-26T23:56:13.084Z,21.30
2022-10-26T23:59:15.781Z,21.20
